Terminal Aerodrome Forecast
Issued by NWS

Home | Current Version | Previous Version | Text Only | Print | Product List | Glossary On
Versions: 1 2 3 4 5 6 7 8 9 10 11 12 13 14 15
000
FTUS46 KOTX 201138
TAFMWH
TAF
KMWH 201138Z 2012/2112 20006KT P6SM SCT250
     FM202000 20010KT P6SM BKN140 OVC200
     FM210200 14006KT P6SM SCT140 OVC200
     FM210800 01008KT P6SM BKN140 OVC200=

USA.gov is the U.S. government's official web portal to all federal, state and local government web resources and services.